sensor_id;sensor_type;location;lat;lon;timestamp;P1;durP1;ratioP1;P2;durP2;ratioP2
85316;SDS011;75721;52.330;9.772;2024-01-15T00:00:38;12.63;;;5.45;;
85316;SDS011;75721;52.330;9.772;2024-01-15T00:03:04;16.95;;;6.10;;
85316;SDS011;75721;52.330;9.772;2024-01-15T00:05:29;15.83;;;4.97;;
85316;SDS011;75721;52.330;9.772;2024-01-15T00:07:54;15.93;;;5.83;;
85316;SDS011;75721;52.330;9.772;2024-01-15T00:10:20;11.00;;;4.73;;
85316;SDS011;75721;52.330;9.772;2024-01-15T00:12:45;14.13;;;4.47;;
85316;SDS011;75721;52.330;9.772;2024-01-15T00:15:10;7.27;;;3.67;;
85316;SDS011;75721;52.330;9.772;2024-01-15T00:17:35;11.17;;;3.97;;
85316;SDS011;75721;52.330;9.772;2024-01-15T00:20:00;10.93;;;3.77;;
85316;SDS011;75721;52.330;9.772;2024-01-15T00:22:26;10.53;;;4.30;;
85316;SDS011;75721;52.330;9.772;2024-01-15T00:24:52;8.68;;;3.65;;
85316;SDS011;75721;52.330;9.772;2024-01-15T00:27:17;11.57;;;2.80;;
85316;SDS011;75721;52.330;9.772;2024-01-15T00:29:42;10.93;;;4.30;;
85316;SDS011;75721;52.330;9.772;2024-01-15T00:32:07;8.50;;;3.67;;
85316;SDS011;75721;52.330;9.772;2024-01-15T00:34:33;9.80;;;4.47;;
85316;SDS011;75721;52.330;9.772;2024-01-15T00:36:58;9.70;;;3.43;;
85316;SDS011;75721;52.330;9.772;2024-01-15T00:39:23;11.43;;;3.60;;
85316;SDS011;75721;52.330;9.772;2024-01-15T00:41:48;11.57;;;4.13;;
85316;SDS011;75721;52.330;9.772;2024-01-15T00:44:14;10.40;;;3.83;;
85316;SDS011;75721;52.330;9.772;2024-01-15T00:46:43;14.43;;;4.43;;
85316;SDS011;75721;52.330;9.772;2024-01-15T00:49:09;10.30;;;3.05;;
85316;SDS011;75721;52.330;9.772;2024-01-15T00:51:34;11.73;;;3.57;;
85316;SDS011;75721;52.330;9.772;2024-01-15T00:53:59;9.40;;;4.03;;
85316;SDS011;75721;52.330;9.772;2024-01-15T00:56:25;8.60;;;3.93;;
85316;SDS011;75721;52.330;9.772;2024-01-15T00:58:50;12.60;;;4.23;;
85316;SDS011;75721;52.330;9.772;2024-01-15T01:01:15;10.10;;;3.87;;
85316;SDS011;75721;52.330;9.772;2024-01-15T01:03:40;14.00;;;4.70;;
85316;SDS011;75721;52.330;9.772;2024-01-15T01:06:05;12.80;;;4.33;;
85316;SDS011;75721;52.330;9.772;2024-01-15T01:08:31;10.93;;;3.87;;
85316;SDS011;75721;52.330;9.772;2024-01-15T01:10:56;7.70;;;2.57;;
85316;SDS011;75721;52.330;9.772;2024-01-15T01:13:21;9.05;;;3.80;;
85316;SDS011;75721;52.330;9.772;2024-01-15T01:15:47;11.60;;;3.95;;
85316;SDS011;75721;52.330;9.772;2024-01-15T01:18:12;11.67;;;4.03;;
85316;SDS011;75721;52.330;9.772;2024-01-15T01:20:38;8.27;;;2.70;;
85316;SDS011;75721;52.330;9.772;2024-01-15T01:23:03;10.13;;;2.83;;
85316;SDS011;75721;52.330;9.772;2024-01-15T01:25:28;10.90;;;3.33;;
85316;SDS011;75721;52.330;9.772;2024-01-15T01:27:53;6.77;;;2.23;;
85316;SDS011;75721;52.330;9.772;2024-01-15T01:30:19;9.23;;;3.67;;
85316;SDS011;75721;52.330;9.772;2024-01-15T01:32:44;7.87;;;2.80;;
85316;SDS011;75721;52.330;9.772;2024-01-15T01:35:09;8.03;;;3.43;;
85316;SDS011;75721;52.330;9.772;2024-01-15T01:37:34;7.10;;;2.00;;
85316;SDS011;75721;52.330;9.772;2024-01-15T01:39:59;7.70;;;2.50;;
85316;SDS011;75721;52.330;9.772;2024-01-15T01:42:25;9.47;;;3.33;;
85316;SDS011;75721;52.330;9.772;2024-01-15T01:44:50;10.23;;;2.50;;
85316;SDS011;75721;52.330;9.772;2024-01-15T01:47:15;9.67;;;1.77;;
85316;SDS011;75721;52.330;9.772;2024-01-15T01:49:41;9.40;;;2.00;;
85316;SDS011;75721;52.330;9.772;2024-01-15T01:52:06;7.20;;;1.90;;
85316;SDS011;75721;52.330;9.772;2024-01-15T01:54:32;6.68;;;1.50;;
85316;SDS011;75721;52.330;9.772;2024-01-15T01:56:58;6.85;;;1.33;;
85316;SDS011;75721;52.330;9.772;2024-01-15T01:59:25;7.30;;;2.03;;
85316;SDS011;75721;52.330;9.772;2024-01-15T02:01:52;6.35;;;1.98;;
85316;SDS011;75721;52.330;9.772;2024-01-15T02:04:19;7.43;;;1.73;;
85316;SDS011;75721;52.330;9.772;2024-01-15T02:06:44;11.77;;;1.80;;
85316;SDS011;75721;52.330;9.772;2024-01-15T02:09:10;8.27;;;1.60;;
85316;SDS011;75721;52.330;9.772;2024-01-15T02:11:39;7.75;;;2.05;;
85316;SDS011;75721;52.330;9.772;2024-01-15T02:14:05;7.57;;;1.58;;
85316;SDS011;75721;52.330;9.772;2024-01-15T02:16:30;4.60;;;1.67;;
85316;SDS011;75721;52.330;9.772;2024-01-15T02:18:56;8.73;;;1.63;;
85316;SDS011;75721;52.330;9.772;2024-01-15T02:21:21;6.80;;;1.70;;
85316;SDS011;75721;52.330;9.772;2024-01-15T02:23:46;7.17;;;1.73;;
85316;SDS011;75721;52.330;9.772;2024-01-15T02:26:11;6.20;;;2.13;;
85316;SDS011;75721;52.330;9.772;2024-01-15T02:28:37;6.07;;;1.15;;
85316;SDS011;75721;52.330;9.772;2024-01-15T02:31:02;7.67;;;1.53;;
85316;SDS011;75721;52.330;9.772;2024-01-15T02:33:27;5.77;;;1.73;;
85316;SDS011;75721;52.330;9.772;2024-01-15T02:35:53;5.73;;;1.43;;
85316;SDS011;75721;52.330;9.772;2024-01-15T02:38:18;5.40;;;1.00;;
85316;SDS011;75721;52.330;9.772;2024-01-15T02:40:46;6.35;;;1.05;;
85316;SDS011;75721;52.330;9.772;2024-01-15T02:43:12;6.22;;;1.50;;
85316;SDS011;75721;52.330;9.772;2024-01-15T02:45:38;6.78;;;1.25;;
85316;SDS011;75721;52.330;9.772;2024-01-15T02:48:03;6.27;;;1.50;;
85316;SDS011;75721;52.330;9.772;2024-01-15T02:50:29;4.38;;;0.95;;
85316;SDS011;75721;52.330;9.772;2024-01-15T02:52:54;9.87;;;1.47;;
85316;SDS011;75721;52.330;9.772;2024-01-15T02:55:19;4.13;;;1.47;;
85316;SDS011;75721;52.330;9.772;2024-01-15T02:57:45;4.80;;;1.07;;
85316;SDS011;75721;52.330;9.772;2024-01-15T03:00:10;4.10;;;0.63;;
85316;SDS011;75721;52.330;9.772;2024-01-15T03:02:36;4.53;;;0.70;;
85316;SDS011;75721;52.330;9.772;2024-01-15T03:05:04;8.85;;;2.63;;
85316;SDS011;75721;52.330;9.772;2024-01-15T03:07:30;4.63;;;1.05;;
85316;SDS011;75721;52.330;9.772;2024-01-15T03:09:55;12.07;;;1.10;;
85316;SDS011;75721;52.330;9.772;2024-01-15T03:12:20;5.23;;;1.00;;
85316;SDS011;75721;52.330;9.772;2024-01-15T03:14:46;5.90;;;1.23;;
85316;SDS011;75721;52.330;9.772;2024-01-15T03:17:11;6.97;;;0.80;;
85316;SDS011;75721;52.330;9.772;2024-01-15T03:19:37;3.13;;;0.88;;
85316;SDS011;75721;52.330;9.772;2024-01-15T03:22:02;5.10;;;1.00;;
85316;SDS011;75721;52.330;9.772;2024-01-15T03:24:28;7.47;;;1.27;;
85316;SDS011;75721;52.330;9.772;2024-01-15T03:26:53;6.05;;;0.82;;
85316;SDS011;75721;52.330;9.772;2024-01-15T03:29:19;9.33;;;0.87;;
85316;SDS011;75721;52.330;9.772;2024-01-15T03:31:44;6.27;;;1.07;;
85316;SDS011;75721;52.330;9.772;2024-01-15T03:34:09;5.70;;;1.23;;
85316;SDS011;75721;52.330;9.772;2024-01-15T03:36:34;3.87;;;0.80;;
85316;SDS011;75721;52.330;9.772;2024-01-15T03:39:00;5.40;;;0.87;;
85316;SDS011;75721;52.330;9.772;2024-01-15T03:41:25;4.40;;;0.80;;
85316;SDS011;75721;52.330;9.772;2024-01-15T03:43:50;4.07;;;0.70;;
85316;SDS011;75721;52.330;9.772;2024-01-15T03:46:15;4.33;;;0.50;;
85316;SDS011;75721;52.330;9.772;2024-01-15T03:48:40;9.20;;;1.00;;
85316;SDS011;75721;52.330;9.772;2024-01-15T03:51:05;5.33;;;1.03;;
85316;SDS011;75721;52.330;9.772;2024-01-15T03:53:31;4.93;;;0.90;;
85316;SDS011;75721;52.330;9.772;2024-01-15T03:55:56;2.50;;;0.57;;
85316;SDS011;75721;52.330;9.772;2024-01-15T03:58:21;4.20;;;0.90;;
85316;SDS011;75721;52.330;9.772;2024-01-15T04:00:46;6.37;;;0.83;;
85316;SDS011;75721;52.330;9.772;2024-01-15T04:03:12;8.57;;;1.33;;
85316;SDS011;75721;52.330;9.772;2024-01-15T04:05:37;3.23;;;0.83;;
85316;SDS011;75721;52.330;9.772;2024-01-15T04:08:03;5.80;;;0.93;;
85316;SDS011;75721;52.330;9.772;2024-01-15T04:10:28;13.25;;;1.30;;
85316;SDS011;75721;52.330;9.772;2024-01-15T04:12:53;4.57;;;0.83;;
85316;SDS011;75721;52.330;9.772;2024-01-15T04:15:19;5.93;;;0.97;;
85316;SDS011;75721;52.330;9.772;2024-01-15T04:17:44;4.67;;;1.03;;
85316;SDS011;75721;52.330;9.772;2024-01-15T04:20:09;7.43;;;1.33;;
85316;SDS011;75721;52.330;9.772;2024-01-15T04:22:35;5.65;;;0.85;;
85316;SDS011;75721;52.330;9.772;2024-01-15T04:25:00;5.13;;;1.00;;
85316;SDS011;75721;52.330;9.772;2024-01-15T04:27:26;2.88;;;0.95;;
85316;SDS011;75721;52.330;9.772;2024-01-15T04:29:51;3.73;;;0.73;;
85316;SDS011;75721;52.330;9.772;2024-01-15T04:32:16;8.25;;;1.40;;
85316;SDS011;75721;52.330;9.772;2024-01-15T04:34:42;6.10;;;1.37;;
85316;SDS011;75721;52.330;9.772;2024-01-15T04:37:07;6.87;;;0.87;;
85316;SDS011;75721;52.330;9.772;2024-01-15T04:39:32;5.53;;;0.80;;
85316;SDS011;75721;52.330;9.772;2024-01-15T04:41:57;4.97;;;1.37;;
85316;SDS011;75721;52.330;9.772;2024-01-15T04:44:22;4.57;;;0.77;;
85316;SDS011;75721;52.330;9.772;2024-01-15T04:46:48;5.23;;;0.70;;
85316;SDS011;75721;52.330;9.772;2024-01-15T04:49:13;4.97;;;0.67;;
85316;SDS011;75721;52.330;9.772;2024-01-15T04:51:38;7.90;;;1.10;;
85316;SDS011;75721;52.330;9.772;2024-01-15T04:54:03;5.90;;;1.00;;
85316;SDS011;75721;52.330;9.772;2024-01-15T04:56:29;6.75;;;1.00;;
85316;SDS011;75721;52.330;9.772;2024-01-15T04:58:54;6.43;;;1.43;;
85316;SDS011;75721;52.330;9.772;2024-01-15T05:01:19;3.27;;;0.57;;
85316;SDS011;75721;52.330;9.772;2024-01-15T05:03:44;6.57;;;1.00;;
85316;SDS011;75721;52.330;9.772;2024-01-15T05:06:09;9.27;;;1.00;;
85316;SDS011;75721;52.330;9.772;2024-01-15T05:08:34;11.80;;;1.07;;
85316;SDS011;75721;52.330;9.772;2024-01-15T05:11:00;6.20;;;0.90;;
85316;SDS011;75721;52.330;9.772;2024-01-15T05:13:25;4.73;;;0.90;;
85316;SDS011;75721;52.330;9.772;2024-01-15T05:15:50;7.87;;;1.33;;
85316;SDS011;75721;52.330;9.772;2024-01-15T05:18:16;3.17;;;0.73;;
85316;SDS011;75721;52.330;9.772;2024-01-15T05:20:41;13.35;;;1.60;;
85316;SDS011;75721;52.330;9.772;2024-01-15T05:23:07;3.97;;;0.80;;
85316;SDS011;75721;52.330;9.772;2024-01-15T05:25:32;6.60;;;0.97;;
85316;SDS011;75721;52.330;9.772;2024-01-15T05:27:57;6.17;;;1.13;;
85316;SDS011;75721;52.330;9.772;2024-01-15T05:30:22;6.77;;;1.40;;
85316;SDS011;75721;52.330;9.772;2024-01-15T05:32:48;5.00;;;0.60;;
85316;SDS011;75721;52.330;9.772;2024-01-15T05:35:13;4.93;;;1.13;;
85316;SDS011;75721;52.330;9.772;2024-01-15T05:37:39;4.43;;;1.10;;
85316;SDS011;75721;52.330;9.772;2024-01-15T05:40:09;4.65;;;1.10;;
85316;SDS011;75721;52.330;9.772;2024-01-15T05:42:34;5.72;;;1.30;;
85316;SDS011;75721;52.330;9.772;2024-01-15T05:44:59;7.13;;;0.80;;
85316;SDS011;75721;52.330;9.772;2024-01-15T05:47:25;6.97;;;1.33;;
85316;SDS011;75721;52.330;9.772;2024-01-15T05:49:50;4.57;;;0.83;;
85316;SDS011;75721;52.330;9.772;2024-01-15T05:52:15;2.77;;;1.00;;
85316;SDS011;75721;52.330;9.772;2024-01-15T05:54:41;4.85;;;1.63;;
85316;SDS011;75721;52.330;9.772;2024-01-15T05:57:06;4.60;;;0.80;;
85316;SDS011;75721;52.330;9.772;2024-01-15T05:59:31;5.57;;;0.77;;
85316;SDS011;75721;52.330;9.772;2024-01-15T06:01:59;1.60;;;0.40;;
85316;SDS011;75721;52.330;9.772;2024-01-15T06:04:24;5.23;;;1.00;;
85316;SDS011;75721;52.330;9.772;2024-01-15T06:06:49;4.00;;;1.17;;
85316;SDS011;75721;52.330;9.772;2024-01-15T06:09:14;2.30;;;0.50;;
85316;SDS011;75721;52.330;9.772;2024-01-15T06:11:39;5.00;;;0.90;;
85316;SDS011;75721;52.330;9.772;2024-01-15T06:14:05;3.67;;;0.60;;
85316;SDS011;75721;52.330;9.772;2024-01-15T06:16:30;5.93;;;1.10;;
85316;SDS011;75721;52.330;9.772;2024-01-15T06:18:55;3.97;;;0.80;;
85316;SDS011;75721;52.330;9.772;2024-01-15T06:21:20;8.50;;;1.03;;
85316;SDS011;75721;52.330;9.772;2024-01-15T06:23:45;4.17;;;1.10;;
85316;SDS011;75721;52.330;9.772;2024-01-15T06:26:11;4.00;;;0.80;;
85316;SDS011;75721;52.330;9.772;2024-01-15T06:28:37;5.05;;;1.30;;
85316;SDS011;75721;52.330;9.772;2024-01-15T06:31:02;5.07;;;1.00;;
85316;SDS011;75721;52.330;9.772;2024-01-15T06:33:27;7.03;;;1.50;;
85316;SDS011;75721;52.330;9.772;2024-01-15T06:35:52;4.37;;;1.83;;
85316;SDS011;75721;52.330;9.772;2024-01-15T06:38:17;6.30;;;1.30;;
85316;SDS011;75721;52.330;9.772;2024-01-15T06:40:43;5.90;;;1.20;;
85316;SDS011;75721;52.330;9.772;2024-01-15T06:43:13;7.45;;;1.45;;
85316;SDS011;75721;52.330;9.772;2024-01-15T06:45:38;9.83;;;1.30;;
85316;SDS011;75721;52.330;9.772;2024-01-15T06:48:03;4.77;;;1.20;;
85316;SDS011;75721;52.330;9.772;2024-01-15T06:50:29;8.63;;;1.40;;
85316;SDS011;75721;52.330;9.772;2024-01-15T06:52:54;5.70;;;1.27;;
85316;SDS011;75721;52.330;9.772;2024-01-15T06:55:19;9.37;;;1.40;;
85316;SDS011;75721;52.330;9.772;2024-01-15T06:57:45;4.37;;;1.40;;
85316;SDS011;75721;52.330;9.772;2024-01-15T07:00:10;7.27;;;1.07;;
85316;SDS011;75721;52.330;9.772;2024-01-15T07:02:35;6.32;;;0.77;;
85316;SDS011;75721;52.330;9.772;2024-01-15T07:05:01;7.83;;;1.70;;
85316;SDS011;75721;52.330;9.772;2024-01-15T07:07:26;4.97;;;1.17;;
85316;SDS011;75721;52.330;9.772;2024-01-15T07:12:19;6.68;;;1.55;;
85316;SDS011;75721;52.330;9.772;2024-01-15T07:14:44;4.70;;;1.17;;
85316;SDS011;75721;52.330;9.772;2024-01-15T07:17:10;14.47;;;1.40;;
85316;SDS011;75721;52.330;9.772;2024-01-15T07:19:35;3.60;;;0.83;;
85316;SDS011;75721;52.330;9.772;2024-01-15T07:22:00;7.13;;;1.13;;
85316;SDS011;75721;52.330;9.772;2024-01-15T07:24:25;12.73;;;2.23;;
85316;SDS011;75721;52.330;9.772;2024-01-15T07:26:51;5.53;;;1.73;;
85316;SDS011;75721;52.330;9.772;2024-01-15T07:29:16;6.10;;;2.00;;
85316;SDS011;75721;52.330;9.772;2024-01-15T07:31:46;9.87;;;2.70;;
85316;SDS011;75721;52.330;9.772;2024-01-15T07:34:13;7.60;;;1.80;;
85316;SDS011;75721;52.330;9.772;2024-01-15T07:36:38;3.53;;;1.00;;
85316;SDS011;75721;52.330;9.772;2024-01-15T07:39:03;9.40;;;2.00;;
85316;SDS011;75721;52.330;9.772;2024-01-15T07:41:29;6.00;;;1.40;;
85316;SDS011;75721;52.330;9.772;2024-01-15T07:43:54;7.97;;;2.10;;
85316;SDS011;75721;52.330;9.772;2024-01-15T07:46:20;7.07;;;1.53;;
85316;SDS011;75721;52.330;9.772;2024-01-15T07:48:45;8.70;;;1.83;;
85316;SDS011;75721;52.330;9.772;2024-01-15T07:51:10;8.13;;;1.63;;
85316;SDS011;75721;52.330;9.772;2024-01-15T07:53:35;7.27;;;1.87;;
85316;SDS011;75721;52.330;9.772;2024-01-15T07:56:00;4.97;;;1.60;;
85316;SDS011;75721;52.330;9.772;2024-01-15T07:58:26;7.00;;;1.47;;
85316;SDS011;75721;52.330;9.772;2024-01-15T08:00:51;5.70;;;1.33;;
85316;SDS011;75721;52.330;9.772;2024-01-15T08:03:16;6.63;;;1.65;;
85316;SDS011;75721;52.330;9.772;2024-01-15T08:05:42;6.83;;;2.40;;
85316;SDS011;75721;52.330;9.772;2024-01-15T08:08:07;8.13;;;2.20;;
85316;SDS011;75721;52.330;9.772;2024-01-15T08:10:32;9.80;;;3.20;;
85316;SDS011;75721;52.330;9.772;2024-01-15T08:12:57;9.43;;;2.00;;
85316;SDS011;75721;52.330;9.772;2024-01-15T08:15:22;9.00;;;1.90;;
85316;SDS011;75721;52.330;9.772;2024-01-15T08:17:47;7.70;;;1.83;;
85316;SDS011;75721;52.330;9.772;2024-01-15T08:20:13;4.77;;;1.70;;
85316;SDS011;75721;52.330;9.772;2024-01-15T08:22:38;8.15;;;2.03;;
85316;SDS011;75721;52.330;9.772;2024-01-15T08:25:04;4.97;;;1.13;;
85316;SDS011;75721;52.330;9.772;2024-01-15T08:27:29;5.15;;;1.95;;
85316;SDS011;75721;52.330;9.772;2024-01-15T08:29:55;7.85;;;1.98;;
85316;SDS011;75721;52.330;9.772;2024-01-15T08:32:20;7.93;;;1.87;;
85316;SDS011;75721;52.330;9.772;2024-01-15T08:34:45;7.00;;;1.47;;
85316;SDS011;75721;52.330;9.772;2024-01-15T08:37:12;6.28;;;1.42;;
85316;SDS011;75721;52.330;9.772;2024-01-15T08:39:37;1.63;;;0.77;;
85316;SDS011;75721;52.330;9.772;2024-01-15T08:42:03;7.07;;;1.58;;
85316;SDS011;75721;52.330;9.772;2024-01-15T08:44:29;4.40;;;0.93;;
85316;SDS011;75721;52.330;9.772;2024-01-15T08:46:54;5.03;;;1.33;;
85316;SDS011;75721;52.330;9.772;2024-01-15T08:49:19;5.03;;;1.00;;
85316;SDS011;75721;52.330;9.772;2024-01-15T08:51:45;2.88;;;1.17;;
85316;SDS011;75721;52.330;9.772;2024-01-15T08:54:10;5.60;;;1.07;;
85316;SDS011;75721;52.330;9.772;2024-01-15T08:56:35;6.93;;;1.23;;
85316;SDS011;75721;52.330;9.772;2024-01-15T08:59:01;2.00;;;1.30;;
85316;SDS011;75721;52.330;9.772;2024-01-15T09:01:26;6.00;;;1.50;;
85316;SDS011;75721;52.330;9.772;2024-01-15T09:03:51;4.87;;;0.83;;
85316;SDS011;75721;52.330;9.772;2024-01-15T09:06:16;10.07;;;1.50;;
85316;SDS011;75721;52.330;9.772;2024-01-15T09:08:42;4.20;;;0.93;;
85316;SDS011;75721;52.330;9.772;2024-01-15T09:11:07;7.83;;;1.40;;
85316;SDS011;75721;52.330;9.772;2024-01-15T09:13:32;5.73;;;1.63;;
85316;SDS011;75721;52.330;9.772;2024-01-15T09:15:58;3.67;;;0.80;;
85316;SDS011;75721;52.330;9.772;2024-01-15T09:18:24;4.78;;;1.13;;
85316;SDS011;75721;52.330;9.772;2024-01-15T09:20:49;9.57;;;1.27;;
85316;SDS011;75721;52.330;9.772;2024-01-15T09:23:15;3.77;;;0.97;;
85316;SDS011;75721;52.330;9.772;2024-01-15T09:25:40;8.77;;;0.93;;
85316;SDS011;75721;52.330;9.772;2024-01-15T09:28:05;6.50;;;1.00;;
85316;SDS011;75721;52.330;9.772;2024-01-15T09:30:30;6.37;;;1.37;;
85316;SDS011;75721;52.330;9.772;2024-01-15T09:32:55;8.87;;;1.50;;
85316;SDS011;75721;52.330;9.772;2024-01-15T09:35:22;6.63;;;1.40;;
85316;SDS011;75721;52.330;9.772;2024-01-15T09:37:47;4.63;;;1.07;;
85316;SDS011;75721;52.330;9.772;2024-01-15T09:40:13;9.48;;;1.90;;
85316;SDS011;75721;52.330;9.772;2024-01-15T09:42:42;5.72;;;1.40;;
85316;SDS011;75721;52.330;9.772;2024-01-15T09:45:07;3.13;;;1.02;;
85316;SDS011;75721;52.330;9.772;2024-01-15T09:47:34;4.65;;;1.13;;
85316;SDS011;75721;52.330;9.772;2024-01-15T09:50:00;3.05;;;0.80;;
85316;SDS011;75721;52.330;9.772;2024-01-15T09:52:28;9.85;;;2.50;;
85316;SDS011;75721;52.330;9.772;2024-01-15T09:54:55;5.20;;;1.35;;
85316;SDS011;75721;52.330;9.772;2024-01-15T09:57:28;6.47;;;2.00;;
85316;SDS011;75721;52.330;9.772;2024-01-15T09:59:54;3.55;;;1.13;;
85316;SDS011;75721;52.330;9.772;2024-01-15T10:02:19;3.60;;;1.05;;
85316;SDS011;75721;52.330;9.772;2024-01-15T10:04:45;5.32;;;1.60;;
85316;SDS011;75721;52.330;9.772;2024-01-15T10:07:13;5.60;;;1.85;;
85316;SDS011;75721;52.330;9.772;2024-01-15T10:09:44;3.80;;;1.48;;
85316;SDS011;75721;52.330;9.772;2024-01-15T10:12:10;4.70;;;1.40;;
85316;SDS011;75721;52.330;9.772;2024-01-15T10:17:11;5.80;;;0.90;;
85316;SDS011;75721;52.330;9.772;2024-01-15T10:19:38;4.28;;;1.38;;
85316;SDS011;75721;52.330;9.772;2024-01-15T10:22:03;3.30;;;1.00;;
85316;SDS011;75721;52.330;9.772;2024-01-15T10:24:28;3.65;;;1.17;;
85316;SDS011;75721;52.330;9.772;2024-01-15T10:27:04;3.60;;;0.93;;
85316;SDS011;75721;52.330;9.772;2024-01-15T10:29:30;5.20;;;1.02;;
85316;SDS011;75721;52.330;9.772;2024-01-15T10:31:56;2.73;;;1.10;;
85316;SDS011;75721;52.330;9.772;2024-01-15T10:34:21;6.68;;;2.08;;
85316;SDS011;75721;52.330;9.772;2024-01-15T10:36:47;3.50;;;1.40;;
85316;SDS011;75721;52.330;9.772;2024-01-15T10:39:20;5.50;;;1.60;;
85316;SDS011;75721;52.330;9.772;2024-01-15T10:41:45;4.80;;;1.10;;
85316;SDS011;75721;52.330;9.772;2024-01-15T10:44:10;4.77;;;1.67;;
85316;SDS011;75721;52.330;9.772;2024-01-15T10:46:35;1.40;;;0.53;;
85316;SDS011;75721;52.330;9.772;2024-01-15T10:49:02;5.38;;;1.00;;
85316;SDS011;75721;52.330;9.772;2024-01-15T10:51:27;4.30;;;1.05;;
85316;SDS011;75721;52.330;9.772;2024-01-15T10:53:53;3.35;;;0.90;;
85316;SDS011;75721;52.330;9.772;2024-01-15T10:56:20;1.95;;;0.47;;
85316;SDS011;75721;52.330;9.772;2024-01-15T10:58:46;4.32;;;0.88;;
85316;SDS011;75721;52.330;9.772;2024-01-15T11:01:12;3.70;;;0.57;;
85316;SDS011;75721;52.330;9.772;2024-01-15T11:03:38;4.50;;;0.80;;
85316;SDS011;75721;52.330;9.772;2024-01-15T11:06:03;4.20;;;0.90;;
85316;SDS011;75721;52.330;9.772;2024-01-15T11:08:42;2.97;;;1.05;;
85316;SDS011;75721;52.330;9.772;2024-01-15T11:11:07;5.57;;;0.73;;
85316;SDS011;75721;52.330;9.772;2024-01-15T11:15:59;1.50;;;0.57;;
85316;SDS011;75721;52.330;9.772;2024-01-15T11:18:26;4.30;;;0.90;;
85316;SDS011;75721;52.330;9.772;2024-01-15T11:29:11;5.60;;;1.30;;
85316;SDS011;75721;52.330;9.772;2024-01-15T11:31:56;5.43;;;0.50;;
85316;SDS011;75721;52.330;9.772;2024-01-15T11:34:49;5.03;;;0.90;;
85316;SDS011;75721;52.330;9.772;2024-01-15T11:37:20;5.32;;;1.00;;
85316;SDS011;75721;52.330;9.772;2024-01-15T11:39:46;4.05;;;0.98;;
85316;SDS011;75721;52.330;9.772;2024-01-15T11:42:12;3.30;;;0.70;;
85316;SDS011;75721;52.330;9.772;2024-01-15T11:44:38;2.72;;;0.80;;
85316;SDS011;75721;52.330;9.772;2024-01-15T11:47:11;7.90;;;0.93;;
85316;SDS011;75721;52.330;9.772;2024-01-15T11:52:23;2.35;;;0.80;;
85316;SDS011;75721;52.330;9.772;2024-01-15T11:54:55;8.82;;;1.15;;
85316;SDS011;75721;52.330;9.772;2024-01-15T11:57:41;5.85;;;1.40;;
85316;SDS011;75721;52.330;9.772;2024-01-15T12:00:10;4.55;;;1.50;;
85316;SDS011;75721;52.330;9.772;2024-01-15T12:02:37;4.22;;;1.30;;
85316;SDS011;75721;52.330;9.772;2024-01-15T12:05:04;3.97;;;0.98;;
85316;SDS011;75721;52.330;9.772;2024-01-15T12:07:29;4.35;;;0.98;;
85316;SDS011;75721;52.330;9.772;2024-01-15T12:09:55;3.33;;;1.03;;
85316;SDS011;75721;52.330;9.772;2024-01-15T12:12:57;4.35;;;0.90;;
85316;SDS011;75721;52.330;9.772;2024-01-15T12:15:23;5.47;;;1.02;;
85316;SDS011;75721;52.330;9.772;2024-01-15T12:17:49;6.82;;;0.85;;
85316;SDS011;75721;52.330;9.772;2024-01-15T12:20:15;4.80;;;1.00;;
85316;SDS011;75721;52.330;9.772;2024-01-15T12:22:43;8.55;;;1.45;;
85316;SDS011;75721;52.330;9.772;2024-01-15T12:25:09;5.35;;;1.33;;
85316;SDS011;75721;52.330;9.772;2024-01-15T12:27:34;5.45;;;1.33;;
85316;SDS011;75721;52.330;9.772;2024-01-15T12:30:00;6.97;;;1.00;;
85316;SDS011;75721;52.330;9.772;2024-01-15T12:32:25;2.97;;;0.90;;
85316;SDS011;75721;52.330;9.772;2024-01-15T12:34:51;3.83;;;0.95;;
85316;SDS011;75721;52.330;9.772;2024-01-15T12:37:19;3.70;;;1.38;;
85316;SDS011;75721;52.330;9.772;2024-01-15T12:39:45;3.97;;;0.85;;
85316;SDS011;75721;52.330;9.772;2024-01-15T12:42:11;7.13;;;1.27;;
85316;SDS011;75721;52.330;9.772;2024-01-15T12:44:36;5.75;;;0.80;;
85316;SDS011;75721;52.330;9.772;2024-01-15T12:47:05;3.58;;;0.80;;
85316;SDS011;75721;52.330;9.772;2024-01-15T12:49:31;2.55;;;0.95;;
85316;SDS011;75721;52.330;9.772;2024-01-15T12:51:57;3.42;;;0.82;;
85316;SDS011;75721;52.330;9.772;2024-01-15T12:54:23;4.07;;;0.88;;
85316;SDS011;75721;52.330;9.772;2024-01-15T12:56:49;9.13;;;1.13;;
85316;SDS011;75721;52.330;9.772;2024-01-15T12:59:14;11.20;;;1.55;;
85316;SDS011;75721;52.330;9.772;2024-01-15T13:01:40;4.07;;;1.17;;
85316;SDS011;75721;52.330;9.772;2024-01-15T13:04:06;4.88;;;0.73;;
85316;SDS011;75721;52.330;9.772;2024-01-15T13:06:34;6.85;;;0.98;;
85316;SDS011;75721;52.330;9.772;2024-01-15T13:08:59;6.47;;;1.13;;
85316;SDS011;75721;52.330;9.772;2024-01-15T13:11:25;7.27;;;1.53;;
85316;SDS011;75721;52.330;9.772;2024-01-15T13:13:50;5.97;;;1.38;;
85316;SDS011;75721;52.330;9.772;2024-01-15T13:16:16;4.83;;;1.00;;
85316;SDS011;75721;52.330;9.772;2024-01-15T13:18:41;4.93;;;0.73;;
85316;SDS011;75721;52.330;9.772;2024-01-15T13:21:06;6.13;;;0.70;;
85316;SDS011;75721;52.330;9.772;2024-01-15T13:23:31;3.00;;;0.70;;
85316;SDS011;75721;52.330;9.772;2024-01-15T13:25:56;5.17;;;0.93;;
85316;SDS011;75721;52.330;9.772;2024-01-15T13:28:23;6.25;;;1.10;;
85316;SDS011;75721;52.330;9.772;2024-01-15T13:30:48;5.67;;;1.23;;
85316;SDS011;75721;52.330;9.772;2024-01-15T13:33:13;4.67;;;1.07;;
85316;SDS011;75721;52.330;9.772;2024-01-15T13:35:38;6.80;;;0.80;;
85316;SDS011;75721;52.330;9.772;2024-01-15T13:38:03;4.47;;;0.73;;
85316;SDS011;75721;52.330;9.772;2024-01-15T13:40:29;4.15;;;1.88;;
85316;SDS011;75721;52.330;9.772;2024-01-15T13:42:54;4.13;;;0.67;;
85316;SDS011;75721;52.330;9.772;2024-01-15T13:45:19;3.43;;;1.13;;
85316;SDS011;75721;52.330;9.772;2024-01-15T13:47:45;8.52;;;1.08;;
85316;SDS011;75721;52.330;9.772;2024-01-15T13:50:10;3.65;;;1.25;;
85316;SDS011;75721;52.330;9.772;2024-01-15T13:52:36;4.18;;;1.00;;
85316;SDS011;75721;52.330;9.772;2024-01-15T13:55:01;5.20;;;1.30;;
85316;SDS011;75721;52.330;9.772;2024-01-15T13:57:27;6.60;;;1.40;;
85316;SDS011;75721;52.330;9.772;2024-01-15T13:59:52;7.63;;;0.70;;
85316;SDS011;75721;52.330;9.772;2024-01-15T14:02:17;2.93;;;0.93;;
85316;SDS011;75721;52.330;9.772;2024-01-15T14:04:42;4.30;;;1.17;;
85316;SDS011;75721;52.330;9.772;2024-01-15T14:07:08;4.00;;;0.80;;
85316;SDS011;75721;52.330;9.772;2024-01-15T14:09:33;7.87;;;1.50;;
85316;SDS011;75721;52.330;9.772;2024-01-15T14:11:58;9.23;;;1.20;;
85316;SDS011;75721;52.330;9.772;2024-01-15T14:14:24;6.30;;;1.42;;
85316;SDS011;75721;52.330;9.772;2024-01-15T14:16:49;7.77;;;1.33;;
85316;SDS011;75721;52.330;9.772;2024-01-15T14:19:15;6.18;;;1.52;;
85316;SDS011;75721;52.330;9.772;2024-01-15T14:21:40;4.23;;;1.83;;
85316;SDS011;75721;52.330;9.772;2024-01-15T14:24:05;5.50;;;1.42;;
85316;SDS011;75721;52.330;9.772;2024-01-15T14:26:30;4.83;;;1.03;;
85316;SDS011;75721;52.330;9.772;2024-01-15T14:28:56;7.20;;;1.38;;
85316;SDS011;75721;52.330;9.772;2024-01-15T14:31:22;7.13;;;1.60;;
85316;SDS011;75721;52.330;9.772;2024-01-15T14:33:47;5.30;;;1.00;;
85316;SDS011;75721;52.330;9.772;2024-01-15T14:36:12;6.00;;;1.70;;
85316;SDS011;75721;52.330;9.772;2024-01-15T14:38:37;5.47;;;1.17;;
85316;SDS011;75721;52.330;9.772;2024-01-15T14:41:04;7.43;;;1.90;;
85316;SDS011;75721;52.330;9.772;2024-01-15T14:43:29;4.50;;;1.70;;
85316;SDS011;75721;52.330;9.772;2024-01-15T14:45:54;5.13;;;0.97;;
85316;SDS011;75721;52.330;9.772;2024-01-15T14:48:19;5.43;;;1.77;;
85316;SDS011;75721;52.330;9.772;2024-01-15T14:50:45;4.73;;;1.30;;
85316;SDS011;75721;52.330;9.772;2024-01-15T14:53:10;4.18;;;1.33;;
85316;SDS011;75721;52.330;9.772;2024-01-15T14:55:35;5.43;;;1.40;;